Time;durP1;ratioP1;P1;durP2;ratioP2;P2;SDS_P1;SDS_P2;PMS_P1;PMS_P2;Temp;Humidity;BMP_temperature;BMP_pressure;BME280_temperature;BME280_humidity;BME280_pressure;Samples;Min_cycle;Max_cycle;Signal;HPM_P1;HPM_P2
2023/04/11 00:00:08;;;;;;;6.60;5.10;;;;;;;11.76;46.50;101642.50;4977401;28;20049;-81
2023/04/11 00:02:39;;;;;;;5.82;4.30;;;;;;;12.01;46.24;101691.19;4984986;28;20523;-79
2023/04/11 00:05:12;;;;;;;6.03;4.68;;;;;;;11.99;46.76;101687.81;4984304;28;20092;-81
2023/04/11 00:07:41;;;;;;;;;;;;;;;11.97;46.51;101685.25;4979826;28;20045;-82
2023/04/11 00:10:08;;;;;;;6.35;5.20;;;;;;;11.86;46.44;101655.94;4985099;28;19932;-82
2023/04/11 00:12:36;;;;;;;9.23;4.40;;;;;;;11.99;46.53;101674.50;4984798;28;20507;-80
2023/04/11 00:15:03;;;;;;;5.95;3.75;;;;;;;11.68;46.44;101605.00;4987035;28;20062;-81
2023/04/11 00:17:30;;;;;;;7.70;4.78;;;;;;;11.97;46.00;101645.34;4976936;28;20053;-81
2023/04/11 00:20:06;;;;;;;4.38;3.88;;;;;;;11.93;46.20;101632.41;4975145;28;20555;-81
2023/04/11 00:22:42;;;;;;;6.13;4.13;;;;;;;11.93;46.08;101622.59;4980808;28;20595;-81
2023/04/11 00:25:13;;;;;;;10.23;4.05;;;;;;;11.93;45.90;101613.78;4983460;28;20316;-81
2023/04/11 00:27:46;;;;;;;4.70;4.07;;;;;;;11.98;45.92;101611.59;4971271;28;20060;-79
2023/04/11 00:30:14;;;;;;;4.57;4.07;;;;;;;11.92;47.14;101590.81;4995893;28;20124;-79
2023/04/11 00:32:45;;;;;;;6.25;4.72;;;;;;;11.75;46.92;101561.00;4995936;28;20339;-81
2023/04/11 00:35:12;;;;;;;5.05;4.13;;;;;;;11.68;46.86;101565.13;4980472;28;20065;-81
2023/04/11 00:37:42;;;;;;;4.90;4.03;;;;;;;11.98;46.08;101612.44;5002578;28;20462;-81
2023/04/11 00:40:14;;;;;;;5.05;3.80;;;;;;;11.86;45.47;101604.53;4994545;28;20081;-80
2023/04/11 00:42:44;;;;;;;5.40;4.28;;;;;;;11.68;46.20;101589.06;5006280;28;20057;-81
2023/04/11 00:45:16;;;;;;;4.97;4.18;;;;;;;11.72;46.34;101587.84;5000749;28;20402;-82
2023/04/11 00:47:45;;;;;;;6.93;4.30;;;;;;;11.66;46.76;101577.69;5002433;28;20471;-80
2023/04/11 00:50:15;;;;;;;4.32;3.40;;;;;;;11.70;46.98;101587.13;4999488;28;20415;-80
2023/04/11 00:52:50;;;;;;;5.35;3.67;;;;;;;11.70;46.31;101591.56;5003892;28;20037;-79
2023/04/11 00:55:17;;;;;;;5.10;4.20;;;;;;;11.73;45.92;101602.84;4997676;28;20053;-79
2023/04/11 00:57:44;;;;;;;5.45;3.67;;;;;;;11.65;46.22;101589.31;4994274;28;20469;-82
2023/04/11 01:00:22;;;;;;;9.75;3.85;;;;;;;11.65;46.61;101599.94;4999426;28;20073;-80
2023/04/11 01:03:20;;;;;;;6.85;4.32;;;;;;;11.66;46.52;101611.41;5002695;28;20415;-81
2023/04/11 01:05:52;;;;;;;5.35;3.88;;;;;;;11.63;46.44;101606.34;5017425;28;20061;-80
2023/04/11 01:08:21;;;;;;;4.43;4.03;;;;;;;11.47;47.20;101575.59;5002866;28;20350;-81
2023/04/11 01:10:48;;;;;;;6.90;4.07;;;;;;;11.59;46.33;101588.94;5003995;28;20404;-81
2023/04/11 01:13:23;;;;;;;5.03;4.00;;;;;;;11.63;47.00;101596.56;4995509;28;20704;-81
2023/04/11 01:15:53;;;;;;;6.85;3.92;;;;;;;11.64;47.29;101592.91;4991594;28;20409;-80
2023/04/11 01:18:25;;;;;;;4.88;4.38;;;;;;;11.26;46.99;101532.06;5002111;28;20507;-81
2023/04/11 01:20:59;;;;;;;12.13;3.75;;;;;;;11.12;47.00;101502.09;5001050;28;20084;-79
2023/04/11 01:23:36;;;;;;;4.43;3.55;;;;;;;11.68;47.72;101581.06;5003301;28;20053;-81
2023/04/11 01:26:04;;;;;;;4.43;4.03;;;;;;;11.56;48.56;101568.72;5004203;28;20455;-80
2023/04/11 01:28:42;;;;;;;6.93;4.65;;;;;;;11.44;48.11;101553.72;5005082;28;20501;-80
2023/04/11 01:31:12;;;;;;;5.30;4.27;;;;;;;11.46;48.09;101573.91;5018428;28;20140;-81
2023/04/11 01:33:46;;;;;;;5.47;3.80;;;;;;;11.46;47.62;101579.25;5003427;28;20245;-80
2023/04/11 01:36:13;;;;;;;4.95;4.45;;;;;;;11.51;47.53;101581.53;5003201;28;20046;-82
2023/04/11 01:38:42;;;;;;;6.05;3.95;;;;;;;11.34;48.00;101554.44;5019887;28;20056;-80
2023/04/11 01:41:15;;;;;;;7.95;4.35;;;;;;;11.48;48.76;101566.69;5000915;28;20045;-82
2023/04/11 01:43:48;;;;;;;4.80;4.13;;;;;;;11.49;48.14;101568.34;4985703;28;20056;-81
2023/04/11 01:46:27;;;;;;;5.55;3.70;;;;;;;11.45;48.41;101560.72;4982591;28;20488;-82
2023/04/11 01:48:59;;;;;;;6.70;4.30;;;;;;;11.41;48.38;101549.50;4976935;28;20049;-79
2023/04/11 01:51:29;;;;;;;5.03;3.95;;;;;;;11.39;48.57;101539.94;4978261;28;20561;-81
2023/04/11 01:53:56;;;;;;;7.43;4.25;;;;;;;11.33;49.02;101526.19;4980982;28;20512;-81
2023/04/11 01:56:23;;;;;;;6.65;4.22;;;;;;;11.26;49.10;101503.69;4981123;28;20445;-79
2023/04/11 01:58:50;;;;;;;7.88;4.22;;;;;;;11.49;49.75;101540.94;4985094;28;20172;-80
2023/04/11 02:01:24;;;;;;;5.35;4.35;;;;;;;11.52;49.08;101532.69;4983273;28;20515;-81
2023/04/11 02:03:52;;;;;;;4.95;4.38;;;;;;;11.49;49.04;101535.59;5001307;28;20057;-81
2023/04/11 02:06:23;;;;;;;4.82;3.70;;;;;;;11.11;48.40;101460.50;5003538;28;20333;-79
2023/04/11 02:08:54;;;;;;;6.97;4.40;;;;;;;11.31;47.89;101488.22;5001316;28;20427;-81
2023/04/11 02:11:28;;;;;;;4.00;3.15;;;;;;;11.53;47.75;101521.13;4998175;28;20093;-81
2023/04/11 02:14:01;;;;;;;5.22;3.67;;;;;;;11.54;47.06;101504.19;4991248;28;20049;-82
2023/04/11 02:16:51;;;;;;;5.10;3.58;;;;;;;11.59;46.87;101520.63;5009270;28;20929;-79
2023/04/11 02:19:19;;;;;;;5.07;4.18;;;;;;;11.55;47.44;101529.78;4995548;28;20150;-81
2023/04/11 02:21:57;;;;;;;5.53;3.83;;;;;;;11.45;47.89;101518.19;4991371;28;20046;-80
2023/04/11 02:24:35;;;;;;;5.57;3.50;;;;;;;11.43;46.76;101526.31;4998042;28;20159;-81
2023/04/11 02:27:06;;;;;;;5.95;4.35;;;;;;;11.07;46.91;101440.47;4990418;28;20450;-80
2023/04/11 02:29:42;;;;;;;4.50;3.80;;;;;;;11.25;47.27;101443.50;4997984;28;20517;-81
2023/04/11 02:32:09;;;;;;;5.68;4.03;;;;;;;11.61;46.94;101478.78;4999886;28;20046;-81
2023/04/11 02:34:36;;;;;;;7.22;4.40;;;;;;;11.63;46.07;101458.25;5003330;28;20053;-79
2023/04/11 02:37:03;;;;;;;4.88;3.58;;;;;;;11.76;46.75;101452.78;5003537;28;20057;-83
2023/04/11 02:39:30;;;;;;;6.78;4.00;;;;;;;11.36;46.64;101380.66;5002022;28;20140;-78
2023/04/11 02:42:00;;;;;;;6.55;5.18;;;;;;;11.65;46.20;101435.03;4992908;28;20053;-81
2023/04/11 02:44:33;;;;;;;8.77;5.97;;;;;;;11.62;47.23;101439.75;4984421;28;20069;-81
2023/04/11 02:47:00;;;;;;;11.05;8.88;;;;;;;11.56;46.58;101451.72;4995712;28;20050;-82
2023/04/11 02:49:36;;;;;;;10.82;8.98;;;;;;;11.52;46.93;101460.91;4977717;28;20054;-79
2023/04/11 02:52:03;;;;;;;12.02;9.02;;;;;;;11.38;46.58;101448.69;4986557;28;20053;-81
2023/04/11 02:54:30;;;;;;;15.35;8.80;;;;;;;11.38;47.38;101466.47;4995065;28;20335;-80
2023/04/11 02:57:04;;;;;;;10.00;8.20;;;;;;;11.41;46.45;101491.00;4981879;28;20057;-80
2023/04/11 02:59:31;;;;;;;14.98;8.88;;;;;;;11.44;46.73;101479.28;4980152;28;20108;-82
2023/04/11 03:01:59;;;;;;;13.32;8.80;;;;;;;11.25;46.09;101438.19;4989848;28;20058;-81
2023/04/11 03:04:26;;;;;;;13.57;9.55;;;;;;;10.94;46.63;101383.94;4990178;28;20077;-81
2023/04/11 03:06:56;;;;;;;18.60;9.98;;;;;;;11.27;47.48;101430.94;4980604;28;20061;-78
2023/04/11 03:09:37;;;;;;;14.13;9.15;;;;;;;11.48;47.24;101459.44;4998157;28;20300;-83
2023/04/11 03:12:08;;;;;;;16.30;8.73;;;;;;;11.58;46.93;101459.56;4986806;28;20050;-82
2023/04/11 03:14:35;;;;;;;17.00;8.70;;;;;;;11.50;46.86;101461.00;4996361;28;20446;-82
2023/04/11 03:17:04;;;;;;;11.77;6.70;;;;;;;11.34;47.08;101423.34;5000942;28;20099;-82
2023/04/11 03:19:31;;;;;;;11.82;7.53;;;;;;;11.30;47.21;101404.09;4997378;28;20369;-82
2023/04/11 03:22:00;;;;;;;9.15;6.45;;;;;;;11.46;46.58;101414.38;5021422;28;20463;-82
2023/04/11 03:24:28;;;;;;;9.20;7.35;;;;;;;11.38;47.32;101415.94;5007325;28;20054;-81
2023/04/11 03:26:57;;;;;;;11.35;5.93;;;;;;;11.55;47.83;101447.34;4982725;28;20245;-81
2023/04/11 03:29:23;;;;;;;9.57;6.47;;;;;;;11.49;47.93;101442.53;4974837;28;20038;-81
2023/04/11 03:31:51;;;;;;;12.95;6.40;;;;;;;11.64;47.51;101462.59;4982293;28;20137;-81
2023/04/11 03:34:20;;;;;;;9.93;6.07;;;;;;;11.41;47.10;101403.28;4980215;28;20124;-82
2023/04/11 03:36:47;;;;;;;6.57;5.22;;;;;;;11.81;47.37;101466.56;4982074;28;20226;-81
2023/04/11 03:39:16;;;;;;;8.48;5.32;;;;;;;11.73;46.36;101429.94;4973499;28;20412;-81
2023/04/11 03:41:43;;;;;;;9.82;5.00;;;;;;;11.75;46.13;101429.81;4989317;28;20049;-82
2023/04/11 03:44:10;;;;;;;8.07;5.15;;;;;;;11.72;46.86;101422.94;4981270;28;20267;-79
2023/04/11 03:46:44;;;;;;;6.60;4.90;;;;;;;11.84;47.46;101447.69;4977132;28;20054;-80
2023/04/11 03:49:19;;;;;;;12.13;5.57;;;;;;;11.75;47.45;101441.31;5003472;28;20045;-82
2023/04/11 03:51:46;;;;;;;6.78;4.75;;;;;;;11.29;46.81;101322.69;4993335;28;20050;-81
2023/04/11 03:54:18;;;;;;;5.82;4.10;;;;;;;11.75;46.62;101413.88;5011107;28;20046;-82
2023/04/11 03:56:45;;;;;;;6.53;3.97;;;;;;;11.86;46.62;101426.28;4979982;28;20053;-82
2023/04/11 03:59:12;;;;;;;8.05;4.32;;;;;;;11.88;47.04;101435.84;4974681;28;20049;-83
2023/04/11 04:01:39;;;;;;;4.15;3.75;;;;;;;11.67;46.91;101406.47;4977342;28;20269;-82
2023/04/11 04:04:06;;;;;;;4.75;3.97;;;;;;;11.94;46.04;101429.19;4980318;28;20046;-80
2023/04/11 04:06:39;;;;;;;5.93;3.92;;;;;;;11.79;45.58;101396.66;4980424;28;20569;-81
2023/04/11 04:09:14;;;;;;;4.82;3.72;;;;;;;11.83;46.13;101416.72;4981758;28;20404;-83
2023/04/11 04:11:42;;;;;;;9.68;4.25;;;;;;;11.81;46.67;101417.84;4991462;28;20212;-82
2023/04/11 04:14:08;;;;;;;5.75;4.20;;;;;;;11.39;47.40;101353.84;4992274;28;20057;-81
2023/04/11 04:16:43;;;;;;;5.82;4.10;;;;;;;11.40;47.13;101348.41;4979306;28;20080;-82
2023/04/11 04:19:14;;;;;;;10.52;4.38;;;;;;;11.72;47.07;101377.72;4972929;28;20395;-82
2023/04/11 04:22:02;;;;;;;11.52;4.68;;;;;;;11.81;47.33;101388.56;4978941;28;20416;-82
2023/04/11 04:24:37;;;;;;;12.35;4.63;;;;;;;11.84;47.16;101383.81;4987981;28;20072;-82
2023/04/11 04:27:08;;;;;;;8.20;4.65;;;;;;;11.84;47.54;101393.63;5004597;28;20046;-83
2023/04/11 04:29:44;;;;;;;10.40;4.17;;;;;;;11.76;47.89;101400.41;5001514;28;20048;-80
2023/04/11 04:32:19;;;;;;;8.38;4.35;;;;;;;11.66;47.55;101411.94;4980373;28;20060;-83
2023/04/11 04:34:53;;;;;;;5.93;4.20;;;;;;;11.63;48.07;101421.00;4981788;28;20064;-83
2023/04/11 04:37:25;;;;;;;6.78;4.55;;;;;;;11.53;48.27;101425.38;5003431;28;20438;-81
2023/04/11 04:40:01;;;;;;;11.60;4.57;;;;;;;11.32;48.38;101393.38;5006015;28;20085;-79
2023/04/11 04:42:35;;;;;;;9.13;4.68;;;;;;;11.40;49.28;101398.06;4994604;28;20060;-82
2023/04/11 04:45:02;;;;;;;6.20;4.13;;;;;;;11.36;49.62;101392.16;4986769;28;20053;-82
2023/04/11 04:47:31;;;;;;;10.73;4.03;;;;;;;11.49;49.70;101424.78;5003763;28;20056;-82
2023/04/11 04:50:01;;;;;;;;;;;;;;;11.47;50.05;101431.19;5008374;28;20083;-81
2023/04/11 04:52:35;;;;;;;5.72;4.15;;;;;;;11.25;49.21;101400.97;5005904;28;20114;-82
2023/04/11 04:55:06;;;;;;;12.38;4.60;;;;;;;11.42;49.26;101426.22;5016701;28;20130;-80
2023/04/11 04:58:02;;;;;;;6.53;4.32;;;;;;;11.66;48.78;101444.69;5003428;28;20251;-82
2023/04/11 05:00:29;;;;;;;13.85;5.28;;;;;;;11.21;48.54;101372.94;5002454;28;20495;-81
2023/04/11 05:02:59;;;;;;;7.15;4.55;;;;;;;11.51;48.22;101416.69;5001671;28;20386;-81
2023/04/11 05:05:26;;;;;;;7.40;4.78;;;;;;;11.36;48.34;101362.06;5002554;28;20052;-82
2023/04/11 05:07:53;;;;;;;9.43;4.68;;;;;;;11.85;48.70;101403.31;5017038;28;20045;-81
2023/04/11 05:10:22;;;;;;;9.80;5.40;;;;;;;11.50;47.94;101352.00;4985160;28;20356;-81
2023/04/11 05:12:49;;;;;;;7.75;5.05;;;;;;;11.88;48.16;101425.22;4990198;28;20392;-81
2023/04/11 05:15:17;;;;;;;9.57;4.78;;;;;;;11.75;48.44;101405.88;4995257;28;20057;-81
2023/04/11 05:17:46;;;;;;;8.60;5.80;;;;;;;11.82;48.38;101424.84;5000083;28;20522;-80
2023/04/11 05:20:16;;;;;;;12.73;6.13;;;;;;;11.74;48.75;101417.47;5004489;28;20053;-80
2023/04/11 05:22:43;;;;;;;8.95;5.45;;;;;;;11.80;48.50;101427.63;5007418;28;20490;-82
2023/04/11 05:25:10;;;;;;;8.90;5.60;;;;;;;11.74;48.69;101428.97;4992969;28;20076;-82
2023/04/11 05:27:37;;;;;;;7.30;4.88;;;;;;;11.75;49.23;101427.16;5006353;28;20433;-80
2023/04/11 05:30:05;;;;;;;11.35;5.75;;;;;;;11.70;49.47;101416.03;5018935;28;20430;-81
2023/04/11 05:32:32;;;;;;;10.23;4.80;;;;;;;11.71;49.48;101417.72;5004798;28;20053;-83
2023/04/11 05:35:02;;;;;;;5.45;4.00;;;;;;;11.92;48.87;101409.88;4997207;28;20076;-83
2023/04/11 05:37:35;;;;;;;12.27;5.97;;;;;;;11.98;48.91;101404.03;4995188;28;20728;-82
2023/04/11 05:40:03;;;;;;;11.00;6.28;;;;;;;12.02;49.05;101410.78;5002851;28;20710;-79
2023/04/11 05:42:32;;;;;;;12.48;5.57;;;;;;;11.49;49.57;101328.22;4980550;28;20128;-83
2023/04/11 05:44:59;;;;;;;9.38;5.45;;;;;;;11.95;49.83;101398.97;4998467;28;20095;-82
2023/04/11 05:47:31;;;;;;;10.43;5.70;;;;;;;11.92;49.17;101392.06;4995497;28;20113;-82
2023/04/11 05:50:00;;;;;;;10.90;5.97;;;;;;;11.88;48.91;101377.31;4973536;28;20073;-81
2023/04/11 05:52:27;;;;;;;9.73;6.28;;;;;;;12.10;48.62;101412.81;4978559;28;20069;-81
2023/04/11 05:55:03;;;;;;;16.85;5.88;;;;;;;12.24;49.31;101404.53;4997492;28;20050;-82
2023/04/11 05:57:30;;;;;;;9.30;5.30;;;;;;;12.17;48.60;101382.91;5023281;28;20092;-82
2023/04/11 06:00:00;;;;;;;11.48;5.80;;;;;;;11.94;48.72;101336.06;4990664;28;20144;-82
2023/04/11 06:02:27;;;;;;;14.00;6.43;;;;;;;12.23;49.40;101372.72;5003744;28;20544;-81
2023/04/11 06:04:55;;;;;;;10.20;6.10;;;;;;;12.18;48.94;101363.31;5001862;28;20158;-80
2023/04/11 06:07:22;;;;;;;11.95;6.13;;;;;;;12.39;49.40;101376.63;5004831;28;20554;-81
2023/04/11 06:09:49;;;;;;;9.70;5.70;;;;;;;12.53;48.35;101386.13;5017343;28;20064;-82
2023/04/11 06:12:17;;;;;;;23.90;6.55;;;;;;;12.49;49.22;101365.19;4996173;28;20057;-81
2023/04/11 06:14:44;;;;;;;13.55;5.88;;;;;;;12.49;48.17;101355.38;4999872;28;20051;-81
2023/04/11 06:17:11;;;;;;;22.75;6.05;;;;;;;12.70;48.07;101389.16;5012513;28;20057;-82
2023/04/11 06:19:38;;;;;;;10.02;6.07;;;;;;;12.58;48.28;101335.13;4995582;28;20054;-82
2023/04/11 06:22:05;;;;;;;7.68;5.00;;;;;;;12.85;46.62;101368.34;4997629;28;20093;-82
2023/04/11 06:24:37;;;;;;;5.70;4.63;;;;;;;12.90;46.87;101358.13;5003445;28;20491;-82
2023/04/11 06:27:04;;;;;;;7.82;4.50;;;;;;;13.02;46.50;101357.06;4998236;28;20200;-81
2023/04/11 06:29:31;;;;;;;8.77;3.97;;;;;;;12.97;46.41;101333.47;4996632;28;20521;-82
2023/04/11 06:31:58;;;;;;;11.90;4.18;;;;;;;13.13;47.36;101356.97;4993766;28;20049;-82
2023/04/11 06:34:27;;;;;;;6.43;4.20;;;;;;;13.04;46.42;101331.97;5019315;28;20116;-82
2023/04/11 06:37:05;;;;;;;4.45;3.58;;;;;;;13.28;46.39;101344.16;5002181;28;20057;-83
2023/04/11 06:39:35;;;;;;;6.15;4.57;;;;;;;13.17;45.67;101315.72;4997365;28;20093;-82
2023/04/11 06:42:02;;;;;;;6.43;4.38;;;;;;;12.93;45.06;101262.75;4998787;28;20049;-80
2023/04/11 06:44:30;;;;;;;15.55;4.75;;;;;;;13.62;45.05;101359.81;4986241;28;20423;-81
2023/04/11 06:47:07;;;;;;;7.05;4.70;;;;;;;13.78;44.91;101360.09;4993499;28;20092;-82
2023/04/11 06:49:37;;;;;;;5.95;3.53;;;;;;;13.68;44.83;101332.56;4997862;28;20512;-81
2023/04/11 06:52:04;;;;;;;6.85;3.50;;;;;;;13.71;45.04;101332.28;5000170;28;20045;-81
2023/04/11 06:54:34;;;;;;;7.38;3.28;;;;;;;13.87;44.44;101331.75;4994094;28;20683;-83
2023/04/11 06:57:03;;;;;;;3.40;3.10;;;;;;;13.94;44.07;101340.88;4999549;28;20132;-81
2023/04/11 06:59:33;;;;;;;3.35;2.60;;;;;;;13.97;43.90;101329.06;5005769;28;20045;-80
2023/04/11 07:02:00;;;;;;;5.10;3.20;;;;;;;14.01;43.46;101298.44;4981386;28;20363;-81
2023/04/11 07:04:27;;;;;;;3.45;3.08;;;;;;;13.90;42.29;101270.06;4994669;28;20072;-81
2023/04/11 07:06:54;;;;;;;3.90;3.50;;;;;;;14.30;42.29;101323.28;4982657;28;20053;-82
2023/04/11 07:09:25;;;;;;;5.40;3.42;;;;;;;14.14;42.30;101276.78;4977693;28;20058;-90
2023/04/11 07:12:00;;;;;;;4.95;3.05;;;;;;;14.51;41.86;101324.91;4981355;28;20053;-82
2023/04/11 07:14:33;;;;;;;4.07;3.50;;;;;;;14.59;41.94;101327.75;4997606;28;20136;-82
2023/04/11 07:17:01;;;;;;;4.63;3.58;;;;;;;14.54;41.79;101295.28;5001493;28;20037;-81
2023/04/11 07:19:28;;;;;;;4.82;2.95;;;;;;;14.79;41.32;101325.84;5006195;28;20468;-81
2023/04/11 07:21:55;;;;;;;4.25;3.22;;;;;;;14.76;41.67;101318.13;5014895;28;20493;-81
2023/04/11 07:24:26;;;;;;;3.97;3.00;;;;;;;14.77;41.64;101316.31;5011888;28;20279;-82
2023/04/11 07:26:53;;;;;;;2.83;2.63;;;;;;;14.80;42.01;101313.34;4982853;28;20368;-81
2023/04/11 07:29:20;;;;;;;5.88;3.20;;;;;;;14.49;41.61;101244.94;4980472;28;20883;-83
2023/04/11 07:31:47;;;;;;;6.47;3.20;;;;;;;14.72;41.40;101266.78;4997275;28;20199;-80
2023/04/11 07:34:14;;;;;;;8.50;3.90;;;;;;;14.94;42.35;101302.16;4979017;28;20351;-82
2023/04/11 07:36:41;;;;;;;5.75;3.08;;;;;;;14.72;43.05;101269.47;4980131;28;20089;-81
2023/04/11 07:39:11;;;;;;;3.97;3.58;;;;;;;14.76;42.70;101280.72;4983224;28;20057;-81
2023/04/11 07:41:43;;;;;;;6.20;3.47;;;;;;;15.02;43.11;101312.94;4987901;28;20060;-83
2023/04/11 07:44:15;;;;;;;7.97;4.15;;;;;;;14.57;41.92;101228.19;4990475;28;20495;-82
2023/04/11 07:46:45;;;;;;;4.35;3.55;;;;;;;15.06;41.80;101298.28;5017059;28;20050;-83
2023/04/11 07:49:12;;;;;;;4.15;3.25;;;;;;;15.15;41.46;101281.38;5000417;28;20284;-82
2023/04/11 07:51:39;;;;;;;5.88;3.60;;;;;;;15.34;41.42;101295.59;4994958;28;20049;-83
2023/04/11 07:54:07;;;;;;;5.78;3.33;;;;;;;15.22;41.31;101259.34;4995879;28;20128;-82
2023/04/11 07:56:34;;;;;;;3.83;2.65;;;;;;;15.25;40.84;101243.03;4988801;28;20046;-81
2023/04/11 07:59:04;;;;;;;5.32;3.33;;;;;;;15.68;40.58;101293.13;4977393;28;20232;-82
2023/04/11 08:01:34;;;;;;;3.95;3.10;;;;;;;15.34;40.31;101210.00;4981773;28;20058;-83
2023/04/11 08:04:02;;;;;;;4.53;3.20;;;;;;;15.82;40.28;101278.38;4998022;28;20133;-82
2023/04/11 08:06:32;;;;;;;3.47;3.00;;;;;;;15.92;40.30;101295.22;4979542;28;20053;-83
2023/04/11 08:08:59;;;;;;;3.22;2.92;;;;;;;15.94;39.73;101282.47;4976027;28;20255;-81
2023/04/11 08:11:27;;;;;;;2.85;2.65;;;;;;;16.03;39.98;101284.22;5001688;28;20050;-82
2023/04/11 08:13:53;;;;;;;3.83;2.95;;;;;;;16.10;39.43;101286.31;4987919;28;20826;-81
2023/04/11 08:16:21;;;;;;;3.42;3.13;;;;;;;15.93;39.55;101245.16;5010790;28;20525;-81
2023/04/11 08:18:48;;;;;;;4.95;3.17;;;;;;;16.16;39.63;101269.59;5016286;28;20049;-83
2023/04/11 08:21:16;;;;;;;5.40;3.03;;;;;;;16.26;39.26;101275.69;5018099;28;20689;-80
2023/04/11 08:23:42;;;;;;;2.78;2.50;;;;;;;16.37;38.54;101261.19;4997146;28;20703;-82
2023/04/11 08:26:12;;;;;;;4.05;2.83;;;;;;;16.18;38.13;101200.63;4995617;28;20527;-81
2023/04/11 08:28:39;;;;;;;3.88;2.67;;;;;;;16.63;37.42;101255.81;4986692;28;20050;-80
2023/04/11 08:31:11;;;;;;;3.85;2.90;;;;;;;16.48;36.43;101206.47;4984071;28;20061;-81
2023/04/11 08:33:38;;;;;;;5.55;2.65;;;;;;;16.91;36.34;101258.31;4983337;28;20165;-78
2023/04/11 08:36:15;;;;;;;4.05;2.75;;;;;;;17.04;36.01;101266.75;4980994;28;20049;-82
2023/04/11 08:38:43;;;;;;;2.70;2.50;;;;;;;16.95;36.62;101259.69;4992378;28;20052;-80
2023/04/11 08:41:14;;;;;;;3.92;2.60;;;;;;;16.82;36.84;101247.56;5007237;28;20041;-82
2023/04/11 08:43:59;;;;;;;2.78;2.53;;;;;;;16.96;37.13;101262.19;4987104;28;20061;-80
2023/04/11 08:46:31;;;;;;;4.82;2.75;;;;;;;16.97;36.87;101263.03;4996889;28;20598;-80
2023/04/11 08:49:00;;;;;;;4.70;2.97;;;;;;;16.79;37.05;101247.88;5005073;28;20054;-82
2023/04/11 08:51:27;;;;;;;3.88;2.88;;;;;;;17.05;36.80;101263.91;5003907;28;20136;-80
2023/04/11 08:53:56;;;;;;;2.95;2.35;;;;;;;17.05;36.86;101255.00;5014943;28;20049;-81
2023/04/11 08:56:23;;;;;;;4.60;2.60;;;;;;;17.02;36.75;101244.63;5019777;28;20395;-80
2023/04/11 08:58:53;;;;;;;7.78;2.97;;;;;;;16.91;36.78;101226.97;5004357;28;20049;-81
2023/04/11 09:01:27;;;;;;;6.10;3.63;;;;;;;16.81;37.00;101194.09;5000811;28;20051;-80
2023/04/11 09:04:04;;;;;;;5.65;3.10;;;;;;;17.15;36.17;101249.50;5020877;28;20125;-81
2023/04/11 09:06:34;;;;;;;6.53;3.25;;;;;;;17.22;36.69;101251.38;5007602;28;20188;-81
2023/04/11 09:09:28;;;;;;;3.55;3.17;;;;;;;17.24;35.98;101244.00;5014727;28;20046;-80
2023/04/11 09:11:55;;;;;;;4.65;3.17;;;;;;;17.35;36.05;101247.38;4988373;28;20263;-81
2023/04/11 09:14:25;;;;;;;4.65;3.33;;;;;;;16.93;35.71;101159.78;4994895;28;20190;-81
2023/04/11 09:17:04;;;;;;;4.28;3.25;;;;;;;17.48;35.20;101235.16;5000372;28;20057;-81
2023/04/11 09:19:34;;;;;;;6.45;3.33;;;;;;;17.58;35.05;101235.00;5001118;28;20385;-80
2023/04/11 09:22:04;;;;;;;3.60;3.30;;;;;;;17.65;35.50;101233.31;4986558;28;20560;-79
2023/04/11 09:24:35;;;;;;;4.47;3.47;;;;;;;17.88;35.15;101229.97;4993682;28;20492;-80
2023/04/11 09:27:08;;;;;;;3.97;3.33;;;;;;;18.01;35.29;101242.88;5010324;28;20053;-81
2023/04/11 09:29:46;;;;;;;4.75;3.55;;;;;;;18.04;35.78;101237.19;5016731;28;20042;-83
2023/04/11 09:32:32;;;;;;;5.72;3.65;;;;;;;18.10;34.70;101234.66;4996922;28;20265;-80
2023/04/11 09:35:18;;;;;;;5.50;3.28;;;;;;;18.14;34.61;101217.19;4978550;28;20442;-82
2023/04/11 09:37:51;;;;;;;4.57;3.10;;;;;;;18.09;34.99;101195.38;4984927;28;20053;-81
2023/04/11 09:40:21;;;;;;;4.53;4.00;;;;;;;18.15;35.06;101175.84;4986302;28;20129;-80
2023/04/11 09:43:02;;;;;;;4.03;3.25;;;;;;;17.81;34.99;101102.75;4993911;28;20084;-82
2023/04/11 09:45:30;;;;;;;3.88;3.58;;;;;;;18.30;35.58;101177.81;5006525;28;20050;-80
2023/04/11 09:48:11;;;;;;;3.95;3.60;;;;;;;18.24;35.44;101165.09;5002874;28;20329;-83
2023/04/11 09:50:42;;;;;;;6.13;3.42;;;;;;;18.28;35.38;101172.66;4987040;28;20060;-83
2023/04/11 09:53:10;;;;;;;4.00;3.60;;;;;;;18.22;35.35;101146.44;4981572;28;20046;-83
2023/04/11 09:55:49;;;;;;;3.72;3.42;;;;;;;18.18;35.76;101134.41;5002749;28;20072;-81
2023/04/11 09:58:20;;;;;;;6.50;3.35;;;;;;;18.40;35.60;101170.44;5001138;28;20056;-79
2023/04/11 10:00:48;;;;;;;5.57;3.72;;;;;;;18.24;35.71;101131.00;5000306;28;20060;-80
2023/04/11 10:03:18;;;;;;;6.80;3.97;;;;;;;18.46;35.23;101142.84;4992363;28;20583;-81
2023/04/11 10:05:46;;;;;;;5.80;3.58;;;;;;;18.70;35.16;101166.06;4991621;28;20053;-82
2023/04/11 10:08:35;;;;;;;5.90;3.65;;;;;;;18.96;34.46;101171.19;5003368;28;20057;-82
2023/04/11 10:11:08;;;;;;;5.20;3.83;;;;;;;18.98;34.67;101160.22;5002774;28;20057;-82
2023/04/11 10:13:49;;;;;;;8.02;3.45;;;;;;;19.00;34.57;101151.00;4993482;28;20439;-82
2023/04/11 10:16:21;;;;;;;6.25;4.10;;;;;;;18.87;34.59;101126.50;4992831;28;20045;-82
2023/04/11 10:18:54;;;;;;;8.15;3.72;;;;;;;18.42;34.42;101009.78;5013035;28;20041;-82
2023/04/11 10:21:33;;;;;;;8.23;3.90;;;;;;;19.13;34.30;101101.13;4995438;28;20772;-81
2023/04/11 10:24:12;;;;;;;4.13;3.55;;;;;;;19.47;34.52;101135.66;5010794;28;20135;-80
2023/04/11 10:26:53;;;;;;;5.68;3.85;;;;;;;19.63;33.83;101118.47;4979468;28;20447;-80
2023/04/11 10:29:40;;;;;;;4.05;3.65;;;;;;;19.65;33.54;101093.03;4984021;28;20400;-81
2023/04/11 10:32:20;;;;;;;5.68;4.03;;;;;;;20.04;33.88;101136.94;4985097;28;20606;-81
2023/04/11 10:34:50;;;;;;;6.75;4.07;;;;;;;20.15;33.66;101133.81;4993643;28;20257;-80
2023/04/11 10:37:32;;;;;;;6.88;4.25;;;;;;;19.99;33.52;101094.38;5017444;28;20057;-81
2023/04/11 10:40:08;;;;;;;6.82;4.72;;;;;;;20.13;33.52;101103.50;5002827;28;20539;-82
2023/04/11 10:42:40;;;;;;;7.10;4.78;;;;;;;20.26;33.42;101113.59;4991071;28;20054;-81
2023/04/11 10:45:39;;;;;;;6.90;4.63;;;;;;;20.18;32.75;101073.28;4983994;28;20073;-83
2023/04/11 10:48:11;;;;;;;6.93;4.78;;;;;;;20.33;33.06;101082.19;4980053;28;20381;-81
2023/04/11 10:50:43;;;;;;;7.65;4.78;;;;;;;20.38;33.48;101042.00;4997264;28;20066;-81
2023/04/11 10:53:37;;;;;;;6.40;4.97;;;;;;;21.08;32.55;101101.69;4987092;28;20042;-79
2023/04/11 10:56:07;;;;;;;8.10;5.05;;;;;;;21.32;32.64;101098.59;4969905;28;20065;-81
2023/04/11 10:58:36;;;;;;;5.22;4.53;;;;;;;21.21;32.09;101044.28;4997745;28;20164;-81
2023/04/11 11:01:16;;;;;;;9.10;4.50;;;;;;;21.66;32.10;101088.06;5002131;28;20073;-83
2023/04/11 11:04:03;;;;;;;7.10;5.00;;;;;;;21.73;31.66;101080.84;5008683;28;20510;-81
2023/04/11 11:06:33;;;;;;;13.90;4.68;;;;;;;21.72;31.75;101061.09;5003935;28;20045;-81
2023/04/11 11:09:27;;;;;;;7.40;5.15;;;;;;;21.70;31.26;101049.66;4977425;28;20050;-81
2023/04/11 11:12:13;;;;;;;12.50;4.88;;;;;;;21.88;31.42;101080.72;4959523;28;20488;-81
2023/04/11 11:14:46;;;;;;;6.57;4.88;;;;;;;21.83;31.39;101084.00;4983481;28;20064;-81
2023/04/11 11:17:16;;;;;;;6.10;4.40;;;;;;;21.94;31.55;101090.72;4986124;28;20557;-80
2023/04/11 11:19:47;;;;;;;8.15;4.57;;;;;;;21.68;31.92;101026.56;4991880;28;20049;-82
2023/04/11 11:22:15;;;;;;;6.28;4.45;;;;;;;22.26;32.16;101094.66;4978135;28;20280;-82
2023/04/11 11:24:43;;;;;;;8.68;5.22;;;;;;;22.33;32.35;101054.97;4983494;28;20053;-82
2023/04/11 11:27:21;;;;;;;7.78;5.43;;;;;;;22.37;32.24;101053.50;4993231;28;20065;-82
2023/04/11 11:29:49;;;;;;;6.20;5.38;;;;;;;22.45;32.10;101070.59;4987637;28;20348;-81
2023/04/11 11:32:28;;;;;;;10.75;5.57;;;;;;;22.01;31.88;100971.81;4987432;28;20053;-81
2023/04/11 11:34:56;;;;;;;6.15;4.82;;;;;;;22.04;32.03;100998.44;4980003;28;20103;-82
2023/04/11 11:37:26;;;;;;;6.20;4.93;;;;;;;22.58;31.69;101065.22;4982041;28;20075;-81
2023/04/11 11:39:53;;;;;;;6.75;5.63;;;;;;;22.29;32.14;101055.56;4982847;28;20045;-83
2023/04/11 11:42:20;;;;;;;6.38;4.85;;;;;;;22.25;32.32;101057.84;4988136;28;20073;-83